Time;durP1;ratioP1;P1;durP2;ratioP2;P2;SDS_P1;SDS_P2;PMS_P1;PMS_P2;Temp;Humidity;BMP_temperature;BMP_pressure;BME280_temperature;BME280_humidity;BME280_pressure;Samples;Min_cycle;Max_cycle;Signal;HPM_P1;HPM_P2
2021/10/21 00:01:18;;;;;;;13.32;8.73;;;;;;;;;;5032318;28;20017;-63
2021/10/21 00:03:44;;;;;;;14.20;9.75;;;;;;;;;;5032237;28;20531;-64
2021/10/21 00:06:10;;;;;;;15.23;9.02;;;;;;;;;;5032117;28;20532;-66
2021/10/21 00:08:37;;;;;;;13.38;9.18;;;;;;;;;;5032210;28;20045;-66
2021/10/21 00:11:03;;;;;;;12.13;8.68;;;;;;;;;;5032167;28;20037;-66
2021/10/21 00:13:29;;;;;;;13.63;9.45;;;;;;;;;;5032178;28;20020;-67
2021/10/21 00:15:55;;;;;;;13.35;9.18;;;;;;;;;;5030695;28;20068;-66
2021/10/21 00:18:21;;;;;;;15.60;9.27;;;;;;;;;;5030655;28;20075;-65
2021/10/21 00:20:47;;;;;;;13.02;8.68;;;;;;;;;;5032005;28;20021;-63
2021/10/21 00:23:13;;;;;;;11.75;8.48;;;;;;;;;;5030830;28;20117;-64
2021/10/21 00:25:39;;;;;;;13.07;8.95;;;;;;;;;;5031958;28;20484;-64
2021/10/21 00:28:05;;;;;;;13.93;8.93;;;;;;;;;;5031724;28;20028;-64
2021/10/21 00:30:31;;;;;;;14.45;8.60;;;;;;;;;;5031815;28;20026;-64
2021/10/21 00:32:58;;;;;;;14.68;8.18;;;;;;;;;;5030876;28;20389;-65
2021/10/21 00:35:24;;;;;;;13.32;8.68;;;;;;;;;;5031845;28;20021;-65
2021/10/21 00:37:50;;;;;;;11.77;8.05;;;;;;;;;;5031751;28;20036;-64
2021/10/21 00:40:16;;;;;;;12.35;8.00;;;;;;;;;;5031806;28;20021;-64
2021/10/21 00:42:42;;;;;;;15.30;9.15;;;;;;;;;;5031834;28;20053;-65
2021/10/21 00:45:08;;;;;;;12.80;8.60;;;;;;;;;;5031903;28;20026;-65
2021/10/21 00:47:34;;;;;;;12.25;8.20;;;;;;;;;;5032031;28;20030;-64
2021/10/21 00:50:01;;;;;;;14.02;8.43;;;;;;;;;;5031559;28;20562;-66
2021/10/21 00:52:27;;;;;;;12.27;7.78;;;;;;;;;;5031703;28;20041;-65
2021/10/21 00:54:53;;;;;;;12.45;7.93;;;;;;;;;;5031729;28;20408;-65
2021/10/21 00:57:19;;;;;;;12.43;8.20;;;;;;;;;;5031635;28;20075;-64
2021/10/21 00:59:45;;;;;;;11.95;8.18;;;;;;;;;;5031514;28;20032;-64
2021/10/21 01:02:12;;;;;;;12.18;8.30;;;;;;;;;;5031625;28;20484;-64
2021/10/21 01:04:39;;;;;;;12.63;8.55;;;;;;;;;;5032973;28;20048;-64
2021/10/21 01:07:05;;;;;;;12.65;8.15;;;;;;;;;;5035238;28;20532;-64
2021/10/21 01:09:33;;;;;;;14.65;7.78;;;;;;;;;;5034927;28;20026;-64
2021/10/21 01:11:59;;;;;;;12.30;8.35;;;;;;;;;;5034861;28;20587;-65
2021/10/21 01:14:25;;;;;;;13.98;8.77;;;;;;;;;;5035114;28;20029;-65
2021/10/21 01:16:52;;;;;;;10.65;7.40;;;;;;;;;;5034872;28;20052;-65
2021/10/21 01:19:19;;;;;;;11.18;7.65;;;;;;;;;;5033743;28;20048;-65
2021/10/21 01:21:46;;;;;;;13.75;8.60;;;;;;;;;;5033934;28;20026;-64
2021/10/21 01:24:12;;;;;;;11.32;7.55;;;;;;;;;;5034802;28;20021;-67
2021/10/21 01:26:38;;;;;;;12.43;8.10;;;;;;;;;;5034803;28;20548;-64
2021/10/21 01:29:05;;;;;;;11.23;7.43;;;;;;;;;;5034803;28;20030;-66
2021/10/21 01:31:31;;;;;;;12.48;8.05;;;;;;;;;;5033375;28;20033;-64
2021/10/21 01:33:57;;;;;;;13.45;7.80;;;;;;;;;;5034455;28;20060;-64
2021/10/21 01:36:23;;;;;;;14.43;8.38;;;;;;;;;;5034623;28;20465;-64
2021/10/21 01:38:49;;;;;;;12.15;7.72;;;;;;;;;;5034576;28;20108;-66
2021/10/21 01:41:15;;;;;;;10.73;7.65;;;;;;;;;;5034769;28;20022;-64
2021/10/21 01:43:42;;;;;;;11.85;7.80;;;;;;;;;;5034767;28;20155;-64
2021/10/21 01:46:09;;;;;;;11.65;7.60;;;;;;;;;;5034515;28;20484;-66
2021/10/21 01:48:36;;;;;;;11.48;8.05;;;;;;;;;;5034406;28;20029;-66
2021/10/21 01:51:02;;;;;;;13.32;7.93;;;;;;;;;;5034537;28;20033;-65
2021/10/21 01:53:28;;;;;;;14.07;8.23;;;;;;;;;;5034442;28;20021;-66
2021/10/21 01:55:54;;;;;;;11.93;7.97;;;;;;;;;;5034352;28;20057;-64
2021/10/21 01:58:20;;;;;;;10.93;7.53;;;;;;;;;;5034399;28;20067;-65
2021/10/21 02:00:46;;;;;;;10.88;7.88;;;;;;;;;;5034498;28;20076;-67
2021/10/21 02:03:12;;;;;;;10.00;7.18;;;;;;;;;;5033108;28;20029;-64
2021/10/21 02:05:38;;;;;;;11.30;7.72;;;;;;;;;;5034270;28;20594;-64
2021/10/21 02:08:04;;;;;;;11.77;7.68;;;;;;;;;;5034203;28;20129;-66
2021/10/21 02:10:31;;;;;;;12.13;7.97;;;;;;;;;;5034197;28;20033;-66
2021/10/21 02:12:57;;;;;;;9.77;6.93;;;;;;;;;;5034365;28;20036;-64
2021/10/21 02:15:23;;;;;;;12.45;7.32;;;;;;;;;;5033893;28;20045;-66
2021/10/21 02:17:49;;;;;;;11.60;7.97;;;;;;;;;;5033582;28;20033;-65
2021/10/21 02:20:16;;;;;;;12.20;7.35;;;;;;;;;;5034071;28;20013;-65
2021/10/21 02:22:42;;;;;;;15.48;7.43;;;;;;;;;;5033898;28;20029;-65
2021/10/21 02:25:10;;;;;;;10.55;7.10;;;;;;;;;;5033813;28;20021;-65
2021/10/21 02:27:36;;;;;;;10.00;6.93;;;;;;;;;;5033877;28;20018;-65
2021/10/21 02:30:02;;;;;;;13.80;7.63;;;;;;;;;;5033804;28;20049;-65
2021/10/21 02:32:28;;;;;;;10.23;6.95;;;;;;;;;;5033844;28;20123;-64
2021/10/21 02:34:54;;;;;;;10.68;6.78;;;;;;;;;;5033789;28;20026;-66
2021/10/21 02:37:20;;;;;;;11.95;7.80;;;;;;;;;;5032575;28;20026;-65
2021/10/21 02:39:46;;;;;;;10.88;7.15;;;;;;;;;;5033635;28;20029;-64
2021/10/21 02:42:12;;;;;;;11.07;6.68;;;;;;;;;;5033705;28;20021;-65
2021/10/21 02:44:39;;;;;;;11.02;7.13;;;;;;;;;;5033732;28;20100;-66
2021/10/21 02:47:05;;;;;;;11.10;6.90;;;;;;;;;;5033541;28;20029;-64
2021/10/21 02:49:31;;;;;;;9.77;6.80;;;;;;;;;;5033333;28;20137;-66
2021/10/21 02:51:57;;;;;;;12.43;6.68;;;;;;;;;;5033266;28;20041;-65
2021/10/21 02:54:23;;;;;;;10.45;6.45;;;;;;;;;;5033415;28;20104;-64
2021/10/21 02:56:49;;;;;;;10.55;6.78;;;;;;;;;;5033288;28;20565;-64
2021/10/21 02:59:15;;;;;;;10.82;6.20;;;;;;;;;;5033364;28;20133;-64
2021/10/21 03:01:41;;;;;;;9.30;6.38;;;;;;;;;;5033289;28;20025;-64
2021/10/21 03:04:07;;;;;;;11.15;7.80;;;;;;;;;;5033171;28;20083;-65
2021/10/21 03:06:33;;;;;;;10.68;6.80;;;;;;;;;;5033168;28;20078;-64
2021/10/21 03:09:00;;;;;;;8.95;6.35;;;;;;;;;;5033028;28;20028;-63
2021/10/21 03:11:26;;;;;;;10.57;6.50;;;;;;;;;;5033040;28;20029;-63
2021/10/21 03:13:52;;;;;;;14.18;6.88;;;;;;;;;;5032876;28;20075;-63
2021/10/21 03:16:18;;;;;;;9.98;6.13;;;;;;;;;;5032937;28;20029;-66
2021/10/21 03:18:44;;;;;;;12.52;6.80;;;;;;;;;;5032821;28;20132;-65
2021/10/21 03:21:10;;;;;;;9.85;6.55;;;;;;;;;;5033059;28;20028;-65
2021/10/21 03:23:36;;;;;;;9.85;6.55;;;;;;;;;;5032930;28;20412;-64
2021/10/21 03:26:02;;;;;;;10.32;6.53;;;;;;;;;;5032665;28;20043;-64
2021/10/21 03:28:28;;;;;;;12.98;6.78;;;;;;;;;;5031975;28;20452;-67
2021/10/21 03:30:54;;;;;;;9.90;5.93;;;;;;;;;;5032573;28;20528;-65
2021/10/21 03:33:20;;;;;;;9.73;6.10;;;;;;;;;;5031306;28;20056;-63
2021/10/21 03:35:46;;;;;;;11.85;6.40;;;;;;;;;;5032324;28;20104;-63
2021/10/21 03:38:12;;;;;;;11.60;6.65;;;;;;;;;;5032595;28;20026;-64
2021/10/21 03:40:38;;;;;;;9.00;5.75;;;;;;;;;;5032585;28;20029;-66
2021/10/21 03:43:04;;;;;;;9.50;6.30;;;;;;;;;;5032257;28;20447;-64
2021/10/21 03:45:30;;;;;;;11.52;6.22;;;;;;;;;;5032219;28;20026;-64
2021/10/21 03:47:57;;;;;;;9.07;5.90;;;;;;;;;;5032110;28;20013;-66
2021/10/21 03:50:23;;;;;;;11.15;6.72;;;;;;;;;;5032065;28;20069;-65
2021/10/21 03:52:49;;;;;;;10.93;5.97;;;;;;;;;;5032498;28;20022;-66
2021/10/21 03:55:15;;;;;;;8.48;5.63;;;;;;;;;;5032381;28;20045;-66
2021/10/21 03:57:41;;;;;;;9.85;5.90;;;;;;;;;;5032243;28;20021;-66
2021/10/21 04:00:08;;;;;;;8.63;5.53;;;;;;;;;;5032533;28;20684;-65
2021/10/21 04:02:37;;;;;;;9.13;5.57;;;;;;;;;;5032100;28;20194;-66
2021/10/21 04:05:04;;;;;;;8.45;5.57;;;;;;;;;;5031901;28;20044;-65
2021/10/21 04:07:30;;;;;;;9.02;6.22;;;;;;;;;;5032091;28;20083;-63
2021/10/21 04:09:56;;;;;;;9.02;5.85;;;;;;;;;;5032154;28;20108;-66
2021/10/21 04:12:22;;;;;;;12.13;6.03;;;;;;;;;;5032009;28;20041;-64
2021/10/21 04:14:48;;;;;;;9.77;5.72;;;;;;;;;;5031881;28;20022;-64
2021/10/21 04:17:15;;;;;;;10.45;5.70;;;;;;;;;;5032166;28;20052;-64
2021/10/21 04:19:41;;;;;;;9.63;5.90;;;;;;;;;;5031998;28;20025;-67
2021/10/21 04:22:07;;;;;;;9.75;5.60;;;;;;;;;;5031900;28;20500;-67
2021/10/21 04:24:34;;;;;;;9.73;5.28;;;;;;;;;;5031985;28;20040;-64
2021/10/21 04:27:00;;;;;;;11.52;5.32;;;;;;;;;;5031915;28;20026;-64
2021/10/21 04:29:26;;;;;;;8.10;5.10;;;;;;;;;;5032017;28;20026;-68
2021/10/21 04:31:52;;;;;;;9.18;5.90;;;;;;;;;;5030529;28;20069;-64
2021/10/21 04:34:18;;;;;;;9.65;5.68;;;;;;;;;;5031691;28;20061;-67
2021/10/21 04:36:44;;;;;;;8.13;5.38;;;;;;;;;;5031894;28;20033;-64
2021/10/21 04:39:10;;;;;;;8.98;5.55;;;;;;;;;;5032339;28;20021;-65
2021/10/21 04:41:36;;;;;;;9.30;5.65;;;;;;;;;;5035771;28;20114;-66
2021/10/21 04:44:02;;;;;;;10.45;6.20;;;;;;;;;;5035718;28;20140;-66
2021/10/21 04:46:28;;;;;;;7.78;5.10;;;;;;;;;;5034494;28;20449;-66
2021/10/21 04:48:54;;;;;;;7.78;4.97;;;;;;;;;;5035306;28;20049;-65
2021/10/21 04:51:20;;;;;;;8.88;5.45;;;;;;;;;;5034311;28;20057;-66
2021/10/21 04:53:47;;;;;;;8.00;5.25;;;;;;;;;;5035516;28;20053;-65
2021/10/21 04:56:13;;;;;;;9.23;5.50;;;;;;;;;;5034090;28;20543;-65
2021/10/21 04:58:39;;;;;;;9.23;5.63;;;;;;;;;;5035482;28;20440;-64
2021/10/21 05:01:06;;;;;;;7.70;4.95;;;;;;;;;;5035393;28;20025;-65
2021/10/21 05:03:32;;;;;;;9.05;4.70;;;;;;;;;;5035406;28;20029;-64
2021/10/21 05:05:58;;;;;;;8.85;5.28;;;;;;;;;;5035279;28;20384;-64
2021/10/21 05:08:24;;;;;;;9.02;5.20;;;;;;;;;;5035412;28;20014;-64
2021/10/21 05:10:50;;;;;;;9.50;5.28;;;;;;;;;;5035197;28;20065;-65
2021/10/21 05:13:16;;;;;;;9.02;4.88;;;;;;;;;;5035259;28;20026;-65
2021/10/21 05:15:43;;;;;;;8.95;5.07;;;;;;;;;;5035223;28;20108;-64
2021/10/21 05:18:09;;;;;;;10.32;5.20;;;;;;;;;;5034989;28;20101;-64
2021/10/21 05:20:35;;;;;;;8.80;5.03;;;;;;;;;;5035217;28;20029;-64
2021/10/21 05:23:04;;;;;;;8.50;5.15;;;;;;;;;;5035109;28;20033;-65
2021/10/21 05:25:31;;;;;;;8.90;4.93;;;;;;;;;;5033828;28;20021;-65
2021/10/21 05:27:57;;;;;;;7.93;4.93;;;;;;;;;;5034933;28;20507;-64
2021/10/21 05:30:23;;;;;;;7.38;4.90;;;;;;;;;;5034618;28;20032;-64
2021/10/21 05:32:49;;;;;;;7.80;4.63;;;;;;;;;;5034922;28;20026;-64
2021/10/21 05:35:15;;;;;;;7.70;4.57;;;;;;;;;;5033625;28;20017;-65
2021/10/21 05:37:41;;;;;;;8.18;4.65;;;;;;;;;;5033711;28;20033;-64
2021/10/21 05:40:08;;;;;;;7.45;4.35;;;;;;;;;;5034643;28;20104;-65
2021/10/21 05:42:34;;;;;;;8.68;5.05;;;;;;;;;;5034613;28;20032;-65
2021/10/21 05:45:00;;;;;;;7.82;4.90;;;;;;;;;;5033057;28;20052;-64
2021/10/21 05:47:26;;;;;;;8.70;5.18;;;;;;;;;;5034492;28;20068;-66
2021/10/21 05:49:52;;;;;;;10.02;5.07;;;;;;;;;;5034223;28;20573;-64
2021/10/21 05:52:25;;;;;;;10.68;5.05;;;;;;;;;;5033495;28;20418;-65
2021/10/21 05:54:52;;;;;;;6.60;4.38;;;;;;;;;;5034483;28;20021;-65
2021/10/21 05:57:18;;;;;;;11.32;5.10;;;;;;;;;;5034095;28;20033;-64
2021/10/21 05:59:44;;;;;;;7.63;4.80;;;;;;;;;;5034264;28;20476;-65
2021/10/21 06:02:10;;;;;;;8.73;4.93;;;;;;;;;;5034183;28;20690;-64
2021/10/21 06:04:36;;;;;;;7.50;4.65;;;;;;;;;;5033905;28;20044;-64
2021/10/21 06:07:02;;;;;;;7.90;5.15;;;;;;;;;;5032495;28;20108;-65
2021/10/21 06:09:28;;;;;;;8.82;4.95;;;;;;;;;;5033862;28;20056;-64
2021/10/21 06:11:54;;;;;;;7.20;4.90;;;;;;;;;;5032602;28;20034;-64
2021/10/21 06:14:21;;;;;;;8.63;5.15;;;;;;;;;;5034029;28;20049;-65
2021/10/21 06:16:48;;;;;;;8.50;5.30;;;;;;;;;;5033921;28;20381;-66
2021/10/21 06:19:15;;;;;;;11.05;4.90;;;;;;;;;;5034013;28;20013;-65
2021/10/21 06:21:46;;;;;;;9.30;4.72;;;;;;;;;;5033866;28;20037;-64
2021/10/21 06:24:12;;;;;;;9.85;5.45;;;;;;;;;;5033552;28;20476;-63
2021/10/21 06:26:38;;;;;;;10.35;5.13;;;;;;;;;;5033889;28;20029;-64
2021/10/21 06:29:04;;;;;;;9.43;5.10;;;;;;;;;;5032419;28;20029;-64
2021/10/21 06:31:30;;;;;;;11.68;5.20;;;;;;;;;;5033765;28;20116;-67
2021/10/21 06:33:56;;;;;;;8.50;5.40;;;;;;;;;;5033722;28;20036;-64
2021/10/21 06:36:22;;;;;;;10.95;5.50;;;;;;;;;;5032179;28;20083;-69
2021/10/21 06:38:48;;;;;;;7.60;5.18;;;;;;;;;;5033219;28;20029;-68
2021/10/21 06:41:14;;;;;;;10.07;4.80;;;;;;;;;;5033502;28;20029;-68
2021/10/21 06:43:40;;;;;;;11.10;5.35;;;;;;;;;;5050102;28;20021;-69
2021/10/21 06:46:07;;;;;;;8.80;4.60;;;;;;;;;;5052597;28;20067;-70
2021/10/21 06:48:34;;;;;;;9.65;4.97;;;;;;;;;;5040272;28;20571;-68
2021/10/21 06:51:00;;;;;;;8.10;4.97;;;;;;;;;;5047998;28;20056;-68
2021/10/21 06:53:26;;;;;;;8.68;5.00;;;;;;;;;;5051832;28;20047;-68
2021/10/21 06:55:52;;;;;;;8.77;4.95;;;;;;;;;;5052488;28;20049;-69
2021/10/21 06:58:18;;;;;;;10.90;4.90;;;;;;;;;;5052632;28;20085;-71
2021/10/21 07:00:45;;;;;;;11.00;5.07;;;;;;;;;;5052449;28;20057;-69
2021/10/21 07:03:11;;;;;;;7.93;4.55;;;;;;;;;;5050935;28;20021;-68
2021/10/21 07:05:42;;;;;;;12.02;4.78;;;;;;;;;;5051295;28;20053;-69
2021/10/21 07:08:12;;;;;;;13.45;4.32;;;;;;;;;;5052303;28;20041;-69
2021/10/21 07:10:38;;;;;;;9.18;4.30;;;;;;;;;;5050935;28;20032;-69
2021/10/21 07:13:05;;;;;;;7.28;3.97;;;;;;;;;;5052394;28;20024;-68
2021/10/21 07:15:32;;;;;;;7.78;4.05;;;;;;;;;;5052388;28;20017;-64
2021/10/21 07:17:59;;;;;;;7.25;3.92;;;;;;;;;;5033975;28;20037;-64
2021/10/21 07:20:25;;;;;;;7.43;3.92;;;;;;;;;;5049872;28;20464;-64
2021/10/21 07:22:51;;;;;;;6.65;3.15;;;;;;;;;;5052706;28;20056;-65
2021/10/21 07:25:17;;;;;;;5.93;3.53;;;;;;;;;;5052312;28;20043;-65
2021/10/21 07:27:43;;;;;;;9.52;3.33;;;;;;;;;;5052157;28;20051;-65
2021/10/21 07:30:10;;;;;;;7.05;3.47;;;;;;;;;;5048317;28;20041;-65
2021/10/21 07:32:37;;;;;;;8.15;3.30;;;;;;;;;;5038052;28;20051;-65
2021/10/21 07:35:03;;;;;;;8.50;3.50;;;;;;;;;;5037602;28;20029;-64
2021/10/21 07:37:29;;;;;;;5.60;3.28;;;;;;;;;;5038766;28;20161;-64
2021/10/21 07:39:55;;;;;;;8.90;3.30;;;;;;;;;;5045225;28;20494;-64
2021/10/21 07:42:21;;;;;;;10.20;3.55;;;;;;;;;;5052373;28;20021;-65
2021/10/21 07:44:51;;;;;;;9.70;3.05;;;;;;;;;;5052005;28;20028;-64
2021/10/21 07:47:17;;;;;;;7.70;3.60;;;;;;;;;;5049706;28;20480;-64
2021/10/21 07:49:44;;;;;;;7.05;2.92;;;;;;;;;;5051183;28;20049;-64
2021/10/21 07:52:10;;;;;;;6.97;2.80;;;;;;;;;;5050265;28;20492;-64
2021/10/21 07:54:37;;;;;;;6.05;3.10;;;;;;;;;;5051195;28;20498;-66
2021/10/21 07:57:05;;;;;;;5.25;2.70;;;;;;;;;;5052070;28;20080;-66
2021/10/21 07:59:32;;;;;;;7.97;3.30;;;;;;;;;;5051832;28;20025;-66
2021/10/21 08:01:59;;;;;;;8.93;3.00;;;;;;;;;;5050777;28;20625;-64
2021/10/21 08:04:26;;;;;;;7.88;3.10;;;;;;;;;;5051875;28;20396;-64
2021/10/21 08:06:52;;;;;;;6.63;3.28;;;;;;;;;;5052159;28;20075;-65
2021/10/21 08:09:18;;;;;;;5.82;3.20;;;;;;;;;;5052029;28;20578;-66
2021/10/21 08:11:47;;;;;;;10.18;3.10;;;;;;;;;;5051937;28;20098;-65
2021/10/21 08:14:13;;;;;;;7.13;3.22;;;;;;;;;;5050138;28;20021;-65
2021/10/21 08:16:39;;;;;;;7.78;3.70;;;;;;;;;;5052007;28;20056;-64
2021/10/21 08:19:05;;;;;;;7.93;3.33;;;;;;;;;;5051798;28;20520;-65
2021/10/21 08:21:35;;;;;;;6.07;2.72;;;;;;;;;;5051768;28;20056;-66
2021/10/21 08:24:02;;;;;;;6.82;2.83;;;;;;;;;;5051641;28;20044;-65
2021/10/21 08:26:28;;;;;;;6.32;3.08;;;;;;;;;;5051759;28;20021;-65
2021/10/21 08:28:54;;;;;;;6.63;2.78;;;;;;;;;;5051721;28;20040;-64
2021/10/21 08:31:20;;;;;;;8.07;3.50;;;;;;;;;;5051567;28;20033;-65
2021/10/21 08:33:47;;;;;;;6.18;3.03;;;;;;;;;;5051859;28;20021;-65
2021/10/21 08:36:17;;;;;;;11.02;2.90;;;;;;;;;;5051750;28;20036;-64
2021/10/21 08:38:43;;;;;;;11.65;3.33;;;;;;;;;;5051359;28;20544;-65
2021/10/21 08:41:11;;;;;;;7.22;3.40;;;;;;;;;;5051564;28;20484;-65
2021/10/21 08:43:37;;;;;;;7.85;2.95;;;;;;;;;;5051728;28;20036;-66
2021/10/21 08:46:03;;;;;;;9.48;3.03;;;;;;;;;;5048356;28;20431;-64
2021/10/21 08:48:29;;;;;;;10.27;2.78;;;;;;;;;;5028709;28;20033;-65
2021/10/21 08:50:57;;;;;;;6.88;3.15;;;;;;;;;;5031418;28;20381;-65
2021/10/21 08:53:23;;;;;;;9.93;3.05;;;;;;;;;;5031584;28;20476;-65
2021/10/21 08:55:52;;;;;;;10.07;3.15;;;;;;;;;;5031754;28;20051;-64
2021/10/21 08:58:18;;;;;;;7.63;2.60;;;;;;;;;;5030211;28;20087;-65
2021/10/21 09:00:51;;;;;;;5.90;2.97;;;;;;;;;;5030222;28;20032;-65
2021/10/21 09:03:37;;;;;;;9.73;3.25;;;;;;;;;;5029956;28;20018;-65
2021/10/21 09:08:56;;;;;;;;;;;;;;;;;;5030628;28;20060;-65
2021/10/21 09:11:22;;;;;;;6.40;2.72;;;;;;;;;;5031480;28;20318;-64
2021/10/21 09:14:05;;;;;;;7.60;3.00;;;;;;;;;;5031342;28;20029;-65
2021/10/21 09:16:32;;;;;;;7.30;3.00;;;;;;;;;;5029880;28;20120;-65
2021/10/21 09:19:05;;;;;;;6.20;2.88;;;;;;;;;;5030120;28;20069;-65
2021/10/21 09:21:33;;;;;;;5.40;2.70;;;;;;;;;;5031417;28;20101;-66
2021/10/21 09:24:19;;;;;;;9.48;2.67;;;;;;;;;;5035184;28;20032;-65
2021/10/21 09:27:24;;;;;;;12.77;2.33;;;;;;;;;;5051167;28;20028;-65
2021/10/21 09:29:55;;;;;;;8.90;3.17;;;;;;;;;;5032060;28;20069;-66
2021/10/21 09:32:24;;;;;;;5.65;2.30;;;;;;;;;;5031915;28;20044;-66
2021/10/21 09:34:51;;;;;;;12.75;2.55;;;;;;;;;;5043932;28;20025;-65
2021/10/21 09:37:45;;;;;;;5.85;2.38;;;;;;;;;;5054490;28;20021;-65
2021/10/21 09:40:12;;;;;;;6.90;2.40;;;;;;;;;;5052562;28;20037;-63
2021/10/21 09:42:39;;;;;;;6.07;2.33;;;;;;;;;;5052895;28;20021;-64
2021/10/21 09:45:25;;;;;;;12.20;2.85;;;;;;;;;;5053873;28;20142;-64
2021/10/21 09:47:51;;;;;;;6.60;2.35;;;;;;;;;;5048938;28;20118;-65
2021/10/21 09:50:28;;;;;;;11.27;2.67;;;;;;;;;;5053604;28;20040;-64
2021/10/21 09:53:10;;;;;;;6.25;2.25;;;;;;;;;;5053654;28;20499;-63
2021/10/21 09:55:37;;;;;;;6.78;2.38;;;;;;;;;;5053890;28;20021;-65
2021/10/21 09:58:06;;;;;;;6.28;2.53;;;;;;;;;;5053841;28;20025;-65
2021/10/21 10:00:34;;;;;;;5.60;2.38;;;;;;;;;;5054003;28;20097;-64
2021/10/21 10:03:07;;;;;;;9.57;2.50;;;;;;;;;;5052820;28;20021;-64
2021/10/21 10:05:34;;;;;;;11.63;2.53;;;;;;;;;;5054041;28;20048;-65
2021/10/21 10:08:00;;;;;;;9.00;2.55;;;;;;;;;;5053766;28;20036;-64
2021/10/21 10:10:26;;;;;;;7.35;2.75;;;;;;;;;;5053919;28;20534;-65
2021/10/21 10:12:52;;;;;;;12.55;2.85;;;;;;;;;;5053995;28;20021;-65
2021/10/21 10:15:19;;;;;;;4.82;1.98;;;;;;;;;;5053567;28;20025;-65
2021/10/21 10:17:45;;;;;;;5.65;2.10;;;;;;;;;;5052513;28;20469;-65
2021/10/21 10:20:11;;;;;;;6.05;2.20;;;;;;;;;;5053746;28;20078;-66
2021/10/21 10:22:39;;;;;;;8.55;2.55;;;;;;;;;;5053382;28;20022;-65
2021/10/21 10:25:18;;;;;;;27.38;2.42;;;;;;;;;;5053506;28;20029;-65
2021/10/21 10:27:59;;;;;;;14.98;2.60;;;;;;;;;;5053732;28;20025;-65
2021/10/21 10:30:46;;;;;;;17.88;2.85;;;;;;;;;;5053738;28;20047;-65
2021/10/21 10:33:12;;;;;;;12.90;2.58;;;;;;;;;;5053825;28;20025;-64
2021/10/21 10:35:41;;;;;;;14.90;2.40;;;;;;;;;;5053344;28;20068;-64
2021/10/21 10:38:08;;;;;;;11.00;2.40;;;;;;;;;;5052764;28;20445;-67
2021/10/21 10:40:44;;;;;;;7.40;2.22;;;;;;;;;;5053485;28;20230;-64
2021/10/21 10:43:11;;;;;;;7.07;2.17;;;;;;;;;;5053403;28;20020;-64
2021/10/21 10:45:38;;;;;;;9.68;1.98;;;;;;;;;;5053233;28;20025;-64
2021/10/21 10:48:04;;;;;;;21.25;2.72;;;;;;;;;;5044404;28;20064;-65
2021/10/21 10:50:50;;;;;;;4.70;2.20;;;;;;;;;;5033131;28;20124;-65
2021/10/21 10:53:16;;;;;;;6.32;2.10;;;;;;;;;;5033048;28;20120;-66
2021/10/21 10:55:46;;;;;;;6.93;2.65;;;;;;;;;;5032921;28;20061;-64
2021/10/21 10:58:17;;;;;;;4.28;1.95;;;;;;;;;;5031849;28;20128;-64
2021/10/21 11:00:48;;;;;;;7.78;2.40;;;;;;;;;;5032996;28;20053;-63
2021/10/21 11:03:35;;;;;;;7.55;2.50;;;;;;;;;;5033130;28;20065;-64
2021/10/21 11:06:09;;;;;;;6.05;2.20;;;;;;;;;;5031531;28;20501;-64
2021/10/21 11:08:53;;;;;;;7.53;2.53;;;;;;;;;;5033152;28;20029;-64
2021/10/21 11:11:37;;;;;;;7.82;2.40;;;;;;;;;;5032862;28;20036;-64
2021/10/21 11:14:04;;;;;;;10.15;2.95;;;;;;;;;;5032792;28;20021;-65
2021/10/21 11:16:38;;;;;;;6.75;1.70;;;;;;;;;;5031616;28;20424;-65
2021/10/21 11:19:04;;;;;;;6.13;2.17;;;;;;;;;;5032638;28;20095;-65
2021/10/21 11:21:46;;;;;;;6.50;2.20;;;;;;;;;;5032062;28;20021;-65
2021/10/21 11:24:32;;;;;;;8.57;2.40;;;;;;;;;;5032240;28;20029;-64
2021/10/21 11:27:05;;;;;;;8.02;2.42;;;;;;;;;;5032619;28;20043;-64
2021/10/21 11:29:33;;;;;;;5.18;1.88;;;;;;;;;;5032417;28;20013;-65
2021/10/21 11:32:01;;;;;;;6.78;2.08;;;;;;;;;;5031897;28;20507;-64
2021/10/21 11:34:27;;;;;;;4.30;1.92;;;;;;;;;;5032387;28;20018;-65
2021/10/21 11:36:53;;;;;;;4.95;1.88;;;;;;;;;;5032424;28;20025;-64
2021/10/21 11:39:29;;;;;;;6.82;1.95;;;;;;;;;;5032546;28;20033;-64
2021/10/21 11:41:55;;;;;;;4.65;1.77;;;;;;;;;;5032297;28;20559;-64
2021/10/21 11:44:22;;;;;;;7.03;1.83;;;;;;;;;;5031080;28;20030;-65
2021/10/21 11:46:55;;;;;;;5.72;1.90;;;;;;;;;;5032025;28;20025;-66
2021/10/21 11:49:25;;;;;;;5.00;1.80;;;;;;;;;;5031220;28;20396;-67
2021/10/21 11:52:02;;;;;;;9.30;1.98;;;;;;;;;;5031732;28;20033;-66
2021/10/21 11:54:28;;;;;;;6.97;1.80;;;;;;;;;;5032301;28;20075;-66
2021/10/21 11:56:55;;;;;;;5.72;1.70;;;;;;;;;;5031176;28;20021;-66
2021/10/21 11:59:33;;;;;;;4.13;1.73;;;;;;;;;;5031754;28;20033;-65
2021/10/21 12:02:08;;;;;;;5.47;1.92;;;;;;;;;;5031707;28;20029;-65
2021/10/21 12:04:36;;;;;;;9.05;2.72;;;;;;;;;;5031295;28;20135;-66
2021/10/21 12:07:02;;;;;;;6.28;1.70;;;;;;;;;;5031603;28;20013;-66
2021/10/21 12:09:33;;;;;;;5.28;2.00;;;;;;;;;;5031469;28;20021;-66
2021/10/21 12:12:06;;;;;;;5.00;1.40;;;;;;;;;;5031363;28;20041;-66
2021/10/21 12:14:33;;;;;;;8.98;1.73;;;;;;;;;;5031548;28;20025;-66
2021/10/21 12:16:59;;;;;;;8.73;2.00;;;;;;;;;;5031724;28;20417;-66
2021/10/21 12:19:26;;;;;;;5.82;1.67;;;;;;;;;;5031738;28;20095;-64
2021/10/21 12:22:01;;;;;;;4.60;1.90;;;;;;;;;;5031680;28;20353;-67
2021/10/21 12:24:28;;;;;;;4.78;1.70;;;;;;;;;;5031693;28;20022;-64
2021/10/21 12:27:01;;;;;;;4.70;2.03;;;;;;;;;;5031786;28;20026;-65
2021/10/21 12:29:38;;;;;;;4.72;1.90;;;;;;;;;;5031534;28;20408;-64
2021/10/21 12:32:08;;;;;;;11.35;1.92;;;;;;;;;;5031166;28;20599;-64
2021/10/21 12:34:35;;;;;;;5.07;1.95;;;;;;;;;;5031706;28;20022;-64
2021/10/21 12:37:07;;;;;;;4.30;1.67;;;;;;;;;;5031250;28;20104;-65
2021/10/21 12:39:33;;;;;;;7.82;1.42;;;;;;;;;;5031420;28;20029;-64
2021/10/21 12:42:06;;;;;;;6.82;2.13;;;;;;;;;;5031233;28;20489;-65
2021/10/21 12:44:36;;;;;;;5.30;1.70;;;;;;;;;;5031171;28;20018;-64
2021/10/21 12:49:54;;;;;;;7.90;1.88;;;;;;;;;;5031649;28;20049;-65
2021/10/21 12:52:23;;;;;;;5.35;1.90;;;;;;;;;;5029900;28;20029;-64
2021/10/21 12:54:50;;;;;;;9.70;1.90;;;;;;;;;;5042607;28;20105;-64
2021/10/21 12:57:18;;;;;;;4.78;1.50;;;;;;;;;;5050648;28;20483;-65
2021/10/21 12:59:44;;;;;;;5.72;1.80;;;;;;;;;;5051509;28;20108;-64
2021/10/21 13:02:13;;;;;;;3.08;1.58;;;;;;;;;;5053945;28;20021;-63
2021/10/21 13:04:42;;;;;;;6.45;1.70;;;;;;;;;;5055270;28;20454;-64
2021/10/21 13:07:09;;;;;;;4.00;1.50;;;;;;;;;;5055264;28;20021;-65
2021/10/21 13:09:36;;;;;;;7.57;2.05;;;;;;;;;;5055101;28;20025;-64
2021/10/21 13:12:02;;;;;;;3.85;1.75;;;;;;;;;;5055037;28;20082;-64
2021/10/21 13:14:29;;;;;;;6.80;1.80;;;;;;;;;;5055177;28;20104;-66
2021/10/21 13:16:56;;;;;;;3.03;1.50;;;;;;;;;;5055199;28;20394;-65
2021/10/21 13:19:22;;;;;;;4.13;1.52;;;;;;;;;;5054968;28;20083;-66
2021/10/21 13:21:48;;;;;;;5.70;1.83;;;;;;;;;;5054968;28;20104;-65
2021/10/21 13:24:14;;;;;;;3.92;1.85;;;;;;;;;;5054666;28;20039;-65
2021/10/21 13:26:40;;;;;;;4.78;1.85;;;;;;;;;;5053621;28;20036;-65
2021/10/21 13:29:06;;;;;;;3.33;1.60;;;;;;;;;;5055034;28;20024;-65
2021/10/21 13:31:33;;;;;;;5.10;1.80;;;;;;;;;;5054803;28;20606;-65
2021/10/21 13:34:00;;;;;;;2.80;1.50;;;;;;;;;;5054667;28;20052;-65
2021/10/21 13:36:26;;;;;;;6.03;1.65;;;;;;;;;;5054714;28;20025;-65
2021/10/21 13:38:52;;;;;;;7.22;1.80;;;;;;;;;;5054608;28;20025;-65
2021/10/21 13:41:18;;;;;;;8.93;1.70;;;;;;;;;;5053309;28;20021;-65
2021/10/21 13:43:45;;;;;;;7.10;1.80;;;;;;;;;;5054454;28;20025;-65
2021/10/21 13:46:11;;;;;;;6.78;2.25;;;;;;;;;;5054317;28;20381;-66
2021/10/21 13:48:37;;;;;;;10.90;2.55;;;;;;;;;;5041034;28;20025;-66
2021/10/21 13:51:03;;;;;;;10.57;2.70;;;;;;;;;;5034327;28;20075;-66
2021/10/21 13:53:29;;;;;;;17.40;2.60;;;;;;;;;;5034369;28;20093;-66
2021/10/21 13:55:55;;;;;;;13.60;2.80;;;;;;;;;;5049645;28;20056;-64
2021/10/21 13:58:21;;;;;;;14.15;3.05;;;;;;;;;;5053565;28;20021;-64
2021/10/21 14:00:47;;;;;;;14.15;2.90;;;;;;;;;;5054416;28;20021;-65
2021/10/21 14:03:14;;;;;;;11.93;2.63;;;;;;;;;;5052738;28;20362;-65
2021/10/21 14:05:40;;;;;;;9.00;2.83;;;;;;;;;;5051444;28;20112;-65
2021/10/21 14:08:07;;;;;;;12.00;3.05;;;;;;;;;;5053886;28;20483;-65
2021/10/21 14:10:33;;;;;;;7.38;2.40;;;;;;;;;;5053956;28;20017;-65
2021/10/21 14:13:00;;;;;;;10.27;2.65;;;;;;;;;;5053157;28;20021;-65
2021/10/21 14:15:26;;;;;;;15.20;2.45;;;;;;;;;;5053742;28;20503;-65
2021/10/21 14:17:53;;;;;;;6.28;2.25;;;;;;;;;;5052430;28;20118;-64
2021/10/21 14:20:19;;;;;;;10.93;2.70;;;;;;;;;;5053657;28;20029;-65
2021/10/21 14:22:45;;;;;;;9.43;2.33;;;;;;;;;;5053679;28;20025;-65
2021/10/21 14:25:11;;;;;;;6.85;2.78;;;;;;;;;;5052107;28;20472;-64
2021/10/21 14:27:38;;;;;;;12.95;3.05;;;;;;;;;;5053360;28;20036;-65
2021/10/21 14:30:05;;;;;;;10.43;2.80;;;;;;;;;;5050300;28;20028;-65
2021/10/21 14:32:31;;;;;;;8.80;2.60;;;;;;;;;;5052953;28;20112;-66
2021/10/21 14:34:58;;;;;;;6.70;2.70;;;;;;;;;;5053149;28;20586;-65
2021/10/21 14:37:29;;;;;;;9.25;2.80;;;;;;;;;;5053720;28;20035;-65
2021/10/21 14:39:55;;;;;;;13.48;3.00;;;;;;;;;;5053088;28;20049;-65
2021/10/21 14:42:22;;;;;;;7.07;2.90;;;;;;;;;;5051891;28;20055;-65
2021/10/21 14:44:48;;;;;;;8.23;2.72;;;;;;;;;;5053225;28;20448;-65
2021/10/21 14:47:14;;;;;;;8.32;2.70;;;;;;;;;;5051282;28;20476;-65